Time;durP1;ratioP1;P1;durP2;ratioP2;P2;SDS_P1;SDS_P2;PMS_P1;PMS_P2;Temp;Humidity;BMP_temperature;BMP_pressure;BME280_temperature;BME280_humidity;BME280_pressure;Samples;Min_cycle;Max_cycle;Signal;HPM_P1;HPM_P2
2021/04/09 00:02:00;;;;;;;2.58;1.33;;;5.60;65.80;;;;;;5075948;28;20044;-73
2021/04/09 00:04:25;;;;;;;2.50;1.27;;;5.50;65.80;;;;;;5075187;28;20036;-73
2021/04/09 00:06:52;;;;;;;2.97;1.50;;;5.50;65.90;;;;;;5093342;28;20390;-73
2021/04/09 00:09:18;;;;;;;2.72;1.50;;;5.50;66.00;;;;;;5093722;28;20120;-73
2021/04/09 00:11:44;;;;;;;1.98;1.08;;;5.50;66.10;;;;;;5074706;28;20051;-73
2021/04/09 00:14:13;;;;;;;3.08;1.42;;;5.50;66.10;;;;;;5075152;28;20087;-73
2021/04/09 00:16:39;;;;;;;2.70;1.48;;;5.50;66.20;;;;;;5073775;28;20041;-73
2021/04/09 00:19:13;;;;;;;3.78;1.45;;;5.50;66.80;;;;;;5093106;28;20093;-73
2021/04/09 00:21:39;;;;;;;2.42;1.30;;;5.50;66.30;;;;;;5093082;28;20474;-73
2021/04/09 00:24:06;;;;;;;1.80;1.15;;;5.40;66.30;;;;;;5093101;28;20082;-73
2021/04/09 00:26:32;;;;;;;1.75;1.10;;;5.40;66.40;;;;;;5092899;28;20044;-73
2021/04/09 00:28:59;;;;;;;2.25;1.33;;;5.40;66.50;;;;;;5092781;28;20035;-73
2021/04/09 00:31:24;;;;;;;3.78;1.40;;;5.40;66.60;;;;;;5074926;28;20040;-73
2021/04/09 00:33:50;;;;;;;2.50;1.40;;;5.30;66.50;;;;;;5093092;28;20044;-73
2021/04/09 00:36:17;;;;;;;2.00;1.10;;;5.30;66.60;;;;;;5092966;28;20067;-73
2021/04/09 00:38:43;;;;;;;2.97;1.40;;;5.40;66.70;;;;;;5093004;28;20070;-72
2021/04/09 00:41:09;;;;;;;1.67;1.17;;;5.30;66.70;;;;;;5092801;28;20036;-73
2021/04/09 00:43:35;;;;;;;2.60;1.00;;;5.30;66.80;;;;;;5092883;28;20135;-73
2021/04/09 00:46:01;;;;;;;1.83;1.23;;;5.20;66.70;;;;;;5092698;28;20058;-73
2021/04/09 00:48:26;;;;;;;3.00;1.40;;;5.30;66.80;;;;;;5093272;28;20470;-73
2021/04/09 00:50:52;;;;;;;2.50;1.42;;;5.20;66.80;;;;;;5074372;28;20039;-73
2021/04/09 00:53:18;;;;;;;3.13;1.70;;;5.20;66.80;;;;;;5092471;28;20563;-73
2021/04/09 00:55:46;;;;;;;3.63;1.70;;;5.20;66.70;;;;;;5058009;28;20075;-73
2021/04/09 00:58:12;;;;;;;3.08;1.40;;;5.20;66.70;;;;;;5093024;28;20047;-72
2021/04/09 01:00:37;;;;;;;2.97;1.58;;;5.20;66.70;;;;;;5092713;28;20040;-73
2021/04/09 01:03:03;;;;;;;4.38;1.75;;;5.20;66.70;;;;;;5092254;28;20040;-73
2021/04/09 01:05:32;;;;;;;3.22;1.55;;;5.20;66.70;;;;;;5092078;28;20463;-72
2021/04/09 01:08:02;;;;;;;2.50;1.40;;;5.20;66.70;;;;;;5092346;28;20036;-73
2021/04/09 01:10:28;;;;;;;3.03;1.55;;;5.20;66.70;;;;;;5059142;28;20039;-73
2021/04/09 01:12:53;;;;;;;2.40;1.30;;;5.20;66.80;;;;;;5092335;28;20040;-72
2021/04/09 01:15:20;;;;;;;2.38;1.27;;;5.20;66.80;;;;;;5092036;28;20043;-72
2021/04/09 01:18:05;;;;;;;3.22;1.42;;;5.20;66.80;;;;;;5092250;28;20490;-73
2021/04/09 01:20:53;;;;;;;2.35;1.35;;;5.10;66.90;;;;;;5092033;28;20040;-73
2021/04/09 01:23:45;;;;;;;2.88;1.40;;;5.20;67.10;;;;;;5092010;28;20047;-72
2021/04/09 01:26:45;;;;;;;1.88;1.20;;;5.10;67.00;;;;;;5077005;28;20051;-72
2021/04/09 01:29:44;;;;;;;2.00;0.93;;;5.10;67.00;;;;;;5092135;28;20119;-73
2021/04/09 01:32:12;;;;;;;1.83;1.30;;;5.00;67.00;;;;;;5076042;28;20043;-73
2021/04/09 01:34:43;;;;;;;2.35;1.35;;;5.10;67.10;;;;;;5073672;28;20052;-73
2021/04/09 01:37:17;;;;;;;1.65;1.17;;;5.00;67.20;;;;;;5092492;28;20036;-72
2021/04/09 01:40:03;;;;;;;2.05;1.10;;;5.00;67.20;;;;;;5092086;28;20036;-73
2021/04/09 01:42:33;;;;;;;3.13;1.05;;;5.00;67.80;;;;;;5092347;28;20535;-73
2021/04/09 01:45:00;;;;;;;2.17;1.02;;;5.00;67.20;;;;;;5091727;28;20044;-73
2021/04/09 01:47:28;;;;;;;1.83;1.00;;;4.90;67.30;;;;;;5093814;28;20047;-73
2021/04/09 01:49:57;;;;;;;1.75;0.90;;;4.90;67.50;;;;;;5077447;28;20525;-73
2021/04/09 01:52:25;;;;;;;3.03;1.30;;;4.90;67.60;;;;;;5095507;28;20072;-72
2021/04/09 01:54:54;;;;;;;1.08;0.98;;;4.90;67.70;;;;;;5095443;28;20044;-73
2021/04/09 01:57:23;;;;;;;1.85;1.05;;;5.00;67.70;;;;;;5095152;28;20482;-72
2021/04/09 01:59:50;;;;;;;1.98;0.93;;;4.90;67.70;;;;;;5095406;28;20101;-73
2021/04/09 02:02:18;;;;;;;2.20;1.25;;;4.80;67.70;;;;;;5095389;28;20040;-73
2021/04/09 02:04:44;;;;;;;1.42;0.98;;;4.80;67.80;;;;;;5060508;28;20040;-73
2021/04/09 02:07:11;;;;;;;1.80;1.10;;;4.70;67.90;;;;;;5095045;28;20055;-73
2021/04/09 02:09:37;;;;;;;1.40;0.95;;;4.70;68.00;;;;;;5077416;28;20036;-73
2021/04/09 02:12:03;;;;;;;1.80;0.93;;;4.70;68.10;;;;;;5095711;28;20419;-73
2021/04/09 02:14:33;;;;;;;1.10;0.80;;;4.70;68.10;;;;;;5094960;28;20398;-73
2021/04/09 02:17:04;;;;;;;2.03;1.10;;;4.70;68.20;;;;;;5095055;28;20054;-73
2021/04/09 02:19:30;;;;;;;0.82;0.60;;;4.60;68.20;;;;;;5095524;28;20442;-73
2021/04/09 02:21:58;;;;;;;2.00;1.00;;;4.60;68.30;;;;;;5077096;28;20430;-73
2021/04/09 02:24:24;;;;;;;2.17;1.17;;;4.60;68.40;;;;;;5094936;28;20051;-72
2021/04/09 02:26:53;;;;;;;1.23;0.70;;;4.60;68.40;;;;;;5060078;28;20048;-73
2021/04/09 02:29:20;;;;;;;2.47;0.90;;;4.60;68.40;;;;;;5077248;28;20488;-73
2021/04/09 02:31:46;;;;;;;1.38;0.90;;;4.60;68.40;;;;;;5076846;28;20118;-73
2021/04/09 02:34:11;;;;;;;2.47;1.10;;;4.60;68.40;;;;;;5094822;28;20501;-73
2021/04/09 02:36:37;;;;;;;1.75;1.05;;;4.70;68.50;;;;;;5075654;28;20036;-73
2021/04/09 02:39:14;;;;;;;3.42;1.23;;;4.60;68.50;;;;;;5094700;28;20123;-73
2021/04/09 02:41:43;;;;;;;1.65;1.02;;;4.60;68.50;;;;;;5094864;28;20047;-73
2021/04/09 02:44:10;;;;;;;1.60;1.02;;;4.60;68.50;;;;;;5094475;28;20047;-73
2021/04/09 02:46:50;;;;;;;2.20;1.10;;;4.60;68.60;;;;;;5094576;28;20122;-73
2021/04/09 02:49:36;;;;;;;3.13;0.90;;;4.50;68.60;;;;;;5094447;28;20036;-73
2021/04/09 02:52:05;;;;;;;1.67;0.90;;;4.70;68.70;;;;;;5094443;28;20063;-73
2021/04/09 02:54:34;;;;;;;2.33;1.25;;;4.60;68.60;;;;;;5094477;28;20037;-73
2021/04/09 02:57:02;;;;;;;2.20;1.10;;;4.60;68.60;;;;;;5094176;28;20054;-73
2021/04/09 02:59:29;;;;;;;1.48;0.80;;;4.50;68.60;;;;;;5094415;28;20044;-73
2021/04/09 03:01:56;;;;;;;2.45;1.23;;;4.50;68.60;;;;;;5076145;28;20044;-73
2021/04/09 03:04:23;;;;;;;1.27;0.77;;;4.60;68.70;;;;;;5074377;28;20127;-73
2021/04/09 03:06:49;;;;;;;1.30;0.88;;;4.60;68.70;;;;;;5094346;28;20063;-73
2021/04/09 03:09:15;;;;;;;2.53;1.13;;;4.60;68.60;;;;;;5094092;28;20039;-73
2021/04/09 03:11:42;;;;;;;2.75;1.33;;;4.50;68.60;;;;;;5094196;28;20081;-73
2021/04/09 03:14:10;;;;;;;3.25;1.58;;;4.60;68.60;;;;;;5094200;28;20047;-72
2021/04/09 03:16:43;;;;;;;3.42;1.80;;;4.60;68.50;;;;;;5076662;28;20112;-73
2021/04/09 03:19:10;;;;;;;2.72;1.30;;;4.70;68.50;;;;;;5076643;28;20086;-73
2021/04/09 03:21:36;;;;;;;3.17;1.60;;;4.70;68.30;;;;;;5075814;28;20044;-73
2021/04/09 03:24:03;;;;;;;3.22;1.35;;;4.80;68.30;;;;;;5094095;28;20055;-73
2021/04/09 03:26:29;;;;;;;3.72;1.88;;;4.90;68.20;;;;;;5093791;28;20052;-74
2021/04/09 03:28:54;;;;;;;4.05;2.13;;;4.90;68.10;;;;;;5076588;28;20040;-73
2021/04/09 03:31:20;;;;;;;3.72;1.50;;;4.90;68.10;;;;;;5094205;28;20086;-75
2021/04/09 03:33:46;;;;;;;3.58;1.48;;;5.00;68.00;;;;;;5094030;28;20393;-75
2021/04/09 03:36:11;;;;;;;5.80;1.60;;;5.00;68.00;;;;;;5094041;28;20046;-73
2021/04/09 03:38:37;;;;;;;3.90;1.55;;;5.00;68.00;;;;;;5093961;28;20032;-72
2021/04/09 03:41:03;;;;;;;3.05;1.60;;;5.00;68.00;;;;;;5093708;28;20048;-73
2021/04/09 03:43:28;;;;;;;2.92;1.45;;;5.00;68.00;;;;;;5093606;28;20040;-73
2021/04/09 03:45:54;;;;;;;3.85;1.80;;;5.10;68.00;;;;;;5093423;28;20032;-73
2021/04/09 03:48:20;;;;;;;4.13;2.20;;;5.10;68.00;;;;;;5093781;28;20102;-73
2021/04/09 03:50:45;;;;;;;4.32;2.17;;;5.10;68.00;;;;;;5093505;28;20066;-72
2021/04/09 03:53:11;;;;;;;3.53;1.83;;;5.10;67.90;;;;;;5093527;28;20040;-74
2021/04/09 03:55:37;;;;;;;3.83;1.80;;;5.10;68.00;;;;;;5075718;28;20044;-74
2021/04/09 03:58:03;;;;;;;2.53;1.58;;;5.10;68.00;;;;;;5093740;28;20490;-72
2021/04/09 04:00:28;;;;;;;3.42;1.63;;;5.10;68.00;;;;;;5093460;28;20421;-74
2021/04/09 04:02:55;;;;;;;4.22;2.00;;;5.10;68.10;;;;;;5093542;28;20040;-75
2021/04/09 04:05:21;;;;;;;4.15;2.05;;;5.10;68.10;;;;;;5093236;28;20134;-74
2021/04/09 04:07:46;;;;;;;3.25;1.80;;;5.00;68.10;;;;;;5093854;28;20115;-75
2021/04/09 04:10:13;;;;;;;3.28;1.85;;;5.10;68.20;;;;;;5074267;28;20036;-75
2021/04/09 04:12:39;;;;;;;3.22;1.88;;;5.10;68.30;;;;;;5093722;28;20447;-75
2021/04/09 04:15:08;;;;;;;2.80;1.38;;;5.10;68.30;;;;;;5076307;28;20071;-75
2021/04/09 04:17:33;;;;;;;3.30;1.63;;;5.20;68.50;;;;;;5093374;28;20055;-73
2021/04/09 04:20:00;;;;;;;2.75;1.60;;;5.10;68.40;;;;;;5093502;28;20039;-72
2021/04/09 04:22:26;;;;;;;2.92;1.40;;;5.10;68.40;;;;;;5093261;28;20512;-73
2021/04/09 04:24:52;;;;;;;3.22;1.70;;;5.00;68.50;;;;;;5093447;28;20036;-75
2021/04/09 04:27:18;;;;;;;2.60;1.50;;;5.10;68.50;;;;;;5093577;28;20066;-75
2021/04/09 04:29:44;;;;;;;3.15;1.70;;;5.10;68.60;;;;;;5093296;28;20461;-75
2021/04/09 04:32:10;;;;;;;2.97;1.45;;;5.00;68.50;;;;;;5093031;28;20089;-75
2021/04/09 04:34:36;;;;;;;3.60;1.50;;;5.10;68.70;;;;;;5092757;28;20039;-76
2021/04/09 04:37:02;;;;;;;3.13;1.40;;;5.00;68.60;;;;;;5092929;28;20493;-75
2021/04/09 04:39:28;;;;;;;2.38;1.33;;;5.00;69.30;;;;;;5092864;28;20043;-75
2021/04/09 04:41:53;;;;;;;3.28;1.40;;;5.10;68.80;;;;;;5093055;28;20095;-75
2021/04/09 04:44:19;;;;;;;2.95;1.38;;;5.00;68.70;;;;;;5093377;28;20107;-75
2021/04/09 04:46:46;;;;;;;3.20;1.40;;;5.00;68.80;;;;;;5074896;28;20044;-75
2021/04/09 04:49:11;;;;;;;2.55;1.40;;;5.00;68.90;;;;;;5092760;28;20032;-75
2021/04/09 04:51:37;;;;;;;2.80;1.48;;;4.90;68.90;;;;;;5092672;28;20035;-75
2021/04/09 04:54:03;;;;;;;2.75;1.23;;;4.90;68.90;;;;;;5074416;28;20451;-75
2021/04/09 04:56:29;;;;;;;1.23;1.02;;;4.90;69.00;;;;;;5092724;28;20123;-75
2021/04/09 04:58:55;;;;;;;3.17;1.33;;;4.90;69.10;;;;;;5092815;28;20389;-75
2021/04/09 05:01:22;;;;;;;3.13;1.50;;;4.90;69.10;;;;;;5092707;28;20119;-75
2021/04/09 05:03:47;;;;;;;3.42;1.50;;;4.90;69.20;;;;;;5092804;28;20051;-72
2021/04/09 05:06:15;;;;;;;1.95;1.20;;;4.90;69.20;;;;;;5092394;28;20048;-73
2021/04/09 05:08:41;;;;;;;3.95;1.75;;;4.80;69.20;;;;;;5092636;28;20096;-73
2021/04/09 05:11:08;;;;;;;3.22;1.60;;;4.80;69.30;;;;;;5092746;28;20047;-73
2021/04/09 05:13:34;;;;;;;1.75;1.13;;;4.80;69.40;;;;;;5092424;28;20413;-73
2021/04/09 05:15:59;;;;;;;3.20;1.50;;;4.80;69.40;;;;;;5092753;28;20043;-74
2021/04/09 05:18:25;;;;;;;2.38;1.38;;;4.80;70.00;;;;;;5092754;28;20043;-73
2021/04/09 05:20:51;;;;;;;2.40;1.20;;;4.80;69.40;;;;;;5092445;28;20048;-73
2021/04/09 05:23:17;;;;;;;2.45;1.10;;;4.80;69.40;;;;;;5074575;28;20047;-73
2021/04/09 05:25:42;;;;;;;3.00;1.27;;;4.80;69.40;;;;;;5073136;28;20040;-72
2021/04/09 05:28:08;;;;;;;2.25;1.23;;;4.90;69.50;;;;;;5092388;28;20503;-73
2021/04/09 05:30:34;;;;;;;2.60;1.38;;;4.90;69.50;;;;;;5073896;28;20516;-73
2021/04/09 05:33:00;;;;;;;3.25;1.13;;;4.90;69.50;;;;;;5074694;28;20081;-73
2021/04/09 05:35:25;;;;;;;2.60;1.25;;;5.00;69.40;;;;;;5073872;28;20044;-75
2021/04/09 05:37:52;;;;;;;1.30;1.10;;;5.00;69.50;;;;;;5092046;28;20393;-74
2021/04/09 05:40:18;;;;;;;2.92;1.08;;;5.00;70.00;;;;;;5092365;28;20046;-73
2021/04/09 05:42:44;;;;;;;1.83;0.98;;;5.00;69.30;;;;;;5092637;28;20123;-74
2021/04/09 05:45:11;;;;;;;2.03;1.20;;;5.00;69.30;;;;;;5073800;28;20094;-74
2021/04/09 05:47:36;;;;;;;2.55;1.02;;;5.00;69.30;;;;;;5071864;28;20106;-74
2021/04/09 05:50:03;;;;;;;1.45;0.93;;;5.00;69.30;;;;;;5074041;28;20466;-74
2021/04/09 05:52:28;;;;;;;2.13;1.40;;;5.10;69.40;;;;;;5073409;28;20039;-74
2021/04/09 05:54:54;;;;;;;1.70;1.10;;;5.10;70.00;;;;;;5092147;28;20036;-74
2021/04/09 05:57:19;;;;;;;1.75;1.10;;;5.10;69.40;;;;;;5091410;28;20128;-74
2021/04/09 05:59:47;;;;;;;2.75;1.30;;;5.10;69.30;;;;;;5073693;28;20032;-74
2021/04/09 06:02:13;;;;;;;2.50;1.67;;;5.10;69.30;;;;;;5092238;28;20040;-74
2021/04/09 06:04:38;;;;;;;2.55;1.40;;;5.10;69.20;;;;;;5071550;28;20048;-74
2021/04/09 06:07:04;;;;;;;3.22;1.42;;;5.20;69.20;;;;;;5091985;28;20055;-74
2021/04/09 06:09:30;;;;;;;1.85;1.20;;;5.30;69.20;;;;;;5091366;28;20043;-73
2021/04/09 06:11:58;;;;;;;5.22;2.10;;;5.30;69.10;;;;;;5091235;28;20490;-74
2021/04/09 06:14:25;;;;;;;3.40;1.67;;;5.40;69.00;;;;;;5091458;28;20040;-73
2021/04/09 06:16:52;;;;;;;3.45;1.90;;;5.40;68.80;;;;;;5091698;28;20056;-76
2021/04/09 06:19:18;;;;;;;3.50;1.90;;;5.50;68.70;;;;;;5073026;28;20119;-73
2021/04/09 06:21:45;;;;;;;4.22;1.80;;;5.70;68.70;;;;;;5073525;28;20059;-74
2021/04/09 06:24:11;;;;;;;3.28;1.80;;;5.60;68.70;;;;;;5056607;28;20438;-73
2021/04/09 06:26:37;;;;;;;3.85;2.05;;;5.70;68.60;;;;;;5091264;28;20043;-73
2021/04/09 06:29:03;;;;;;;3.53;1.70;;;5.70;68.50;;;;;;5073639;28;20071;-73
2021/04/09 06:31:29;;;;;;;3.08;2.17;;;5.80;68.40;;;;;;5091456;28;20088;-72
2021/04/09 06:33:55;;;;;;;3.80;2.00;;;5.90;68.30;;;;;;5093776;28;20039;-72
2021/04/09 06:36:21;;;;;;;3.08;1.67;;;6.00;68.10;;;;;;5076917;28;20047;-72
2021/04/09 06:38:47;;;;;;;3.70;2.00;;;6.10;68.10;;;;;;5094796;28;20443;-72
2021/04/09 06:41:13;;;;;;;3.33;1.80;;;6.20;67.90;;;;;;5094349;28;20068;-72
2021/04/09 06:43:39;;;;;;;3.17;1.67;;;6.20;67.80;;;;;;5094885;28;20068;-72
2021/04/09 06:46:05;;;;;;;3.30;1.90;;;6.30;67.90;;;;;;5094721;28;20068;-72
2021/04/09 06:48:31;;;;;;;3.72;1.95;;;6.40;68.00;;;;;;5094228;28;20044;-73
2021/04/09 06:50:59;;;;;;;2.83;1.55;;;6.40;67.90;;;;;;5095033;28;20032;-72
2021/04/09 06:53:25;;;;;;;3.28;1.80;;;6.40;67.80;;;;;;5095088;28;20474;-73
2021/04/09 06:55:51;;;;;;;3.58;2.08;;;6.50;67.90;;;;;;5076267;28;20398;-72
2021/04/09 06:58:19;;;;;;;3.42;1.92;;;6.50;67.80;;;;;;5095031;28;20039;-73
2021/04/09 07:00:49;;;;;;;3.45;1.90;;;6.60;67.80;;;;;;5074711;28;20059;-73
2021/04/09 07:03:15;;;;;;;3.25;1.75;;;6.60;67.80;;;;;;5094565;28;20039;-73
2021/04/09 07:05:41;;;;;;;3.33;1.80;;;6.60;67.70;;;;;;5094284;28;20124;-73
2021/04/09 07:08:07;;;;;;;4.78;1.90;;;6.70;67.80;;;;;;5076119;28;20123;-74
2021/04/09 07:10:32;;;;;;;3.55;2.10;;;6.70;67.80;;;;;;5093923;28;20114;-75
2021/04/09 07:13:08;;;;;;;3.65;1.90;;;6.80;67.80;;;;;;5094229;28;20067;-72
2021/04/09 07:15:39;;;;;;;3.85;1.73;;;6.80;67.80;;;;;;5094107;28;20064;-73
2021/04/09 07:18:06;;;;;;;3.33;1.92;;;6.90;67.80;;;;;;5094222;28;20040;-72
2021/04/09 07:20:33;;;;;;;2.67;1.42;;;6.90;67.80;;;;;;5094277;28;20130;-73
2021/04/09 07:23:00;;;;;;;2.58;1.70;;;7.00;67.80;;;;;;5094330;28;20047;-72
2021/04/09 07:25:28;;;;;;;2.50;1.52;;;7.20;67.80;;;;;;5094306;28;20431;-73
2021/04/09 07:28:21;;;;;;;5.05;2.08;;;7.20;67.70;;;;;;5094278;28;20405;-73
2021/04/09 07:30:56;;;;;;;2.60;1.83;;;7.20;67.70;;;;;;5075750;28;20048;-73
2021/04/09 07:33:25;;;;;;;4.00;2.28;;;7.30;67.70;;;;;;5077802;28;20111;-73
2021/04/09 07:35:54;;;;;;;4.20;1.90;;;7.30;67.60;;;;;;5095158;28;20133;-77
2021/04/09 07:38:23;;;;;;;2.30;1.70;;;7.40;67.60;;;;;;5094118;28;20069;-75
2021/04/09 07:40:56;;;;;;;4.38;2.10;;;7.50;67.50;;;;;;5095640;28;20559;-78
2021/04/09 07:43:22;;;;;;;3.17;1.67;;;7.60;67.40;;;;;;5104358;28;20045;-76
2021/04/09 07:45:53;;;;;;;2.85;1.67;;;7.80;67.30;;;;;;5108280;28;20052;-78
2021/04/09 07:48:18;;;;;;;2.58;1.63;;;7.90;67.20;;;;;;5111083;28;20068;-77
2021/04/09 07:50:48;;;;;;;3.53;1.77;;;8.00;67.00;;;;;;5106993;28;20063;-74
2021/04/09 07:53:19;;;;;;;2.90;1.65;;;8.20;66.90;;;;;;5096520;28;20040;-76
2021/04/09 07:56:24;;;;;;;3.08;1.70;;;8.30;66.80;;;;;;5097618;28;20055;-83
2021/04/09 07:58:58;;;;;;;3.42;1.90;;;8.40;66.70;;;;;;5022919;28;20040;-78
2021/04/09 08:01:26;;;;;;;3.50;1.88;;;8.50;66.70;;;;;;5025206;28;20126;-77
2021/04/09 08:03:53;;;;;;;3.20;1.88;;;8.50;66.60;;;;;;5027699;28;20143;-79
2021/04/09 08:06:21;;;;;;;2.60;1.52;;;8.60;66.70;;;;;;5024523;28;20065;-75
2021/04/09 08:09:01;;;;;;;3.08;1.83;;;8.70;67.40;;;;;;5027961;28;20057;-76
2021/04/09 08:11:31;;;;;;;2.50;1.63;;;9.00;66.50;;;;;;4998855;28;20041;-79
2021/04/09 08:14:18;;;;;;;3.17;2.00;;;9.10;66.30;;;;;;5014196;28;20522;-78
2021/04/09 08:16:45;;;;;;;2.28;1.60;;;9.00;66.20;;;;;;5017331;28;20132;-78
2021/04/09 08:19:14;;;;;;;2.80;1.60;;;9.10;66.30;;;;;;5030889;28;20044;-76
2021/04/09 08:21:42;;;;;;;2.63;1.70;;;9.20;66.30;;;;;;5031088;28;20056;-76
2021/04/09 08:24:10;;;;;;;3.33;1.95;;;9.20;66.30;;;;;;5032404;28;20111;-78
2021/04/09 08:27:01;;;;;;;3.65;2.03;;;9.20;66.40;;;;;;5001574;28;20053;-85
2021/04/09 08:29:33;;;;;;;4.35;2.28;;;9.20;66.50;;;;;;5026077;28;20119;-78
2021/04/09 08:32:02;;;;;;;4.78;2.38;;;9.10;66.60;;;;;;5059329;28;20049;-79
2021/04/09 08:34:31;;;;;;;4.10;2.25;;;9.10;66.80;;;;;;5094698;28;20039;-79
2021/04/09 08:36:58;;;;;;;3.58;2.00;;;9.10;66.90;;;;;;5092862;28;20039;-74
2021/04/09 08:39:24;;;;;;;4.07;2.17;;;9.20;67.00;;;;;;5097296;28;20040;-75
2021/04/09 08:41:56;;;;;;;4.85;2.45;;;9.00;67.00;;;;;;5078552;28;20048;-78
2021/04/09 08:44:22;;;;;;;5.35;2.80;;;9.20;67.10;;;;;;5060557;28;20502;-77
2021/04/09 08:46:48;;;;;;;3.58;2.00;;;9.10;67.10;;;;;;5058214;28;20075;-77
2021/04/09 08:49:16;;;;;;;3.65;2.13;;;9.20;67.20;;;;;;5094637;28;20066;-79
2021/04/09 08:51:42;;;;;;;3.90;2.40;;;9.40;67.20;;;;;;5096585;28;20032;-78
2021/04/09 08:54:18;;;;;;;4.20;2.30;;;9.60;67.10;;;;;;5095097;28;20115;-76
2021/04/09 08:56:44;;;;;;;3.55;2.08;;;9.70;66.50;;;;;;5063680;28;20040;-78
2021/04/09 08:59:10;;;;;;;4.40;2.20;;;9.70;66.40;;;;;;5097898;28;20126;-78
2021/04/09 09:01:36;;;;;;;2.75;1.80;;;9.80;66.60;;;;;;5077025;28;20596;-75
2021/04/09 09:04:31;;;;;;;4.25;2.20;;;9.80;66.60;;;;;;5094722;28;20043;-77
2021/04/09 09:06:56;;;;;;;5.45;2.17;;;9.90;66.40;;;;;;5094345;28;20035;-79
2021/04/09 09:09:32;;;;;;;2.90;2.13;;;9.90;66.40;;;;;;5094687;28;20467;-78
2021/04/09 09:12:00;;;;;;;3.38;2.25;;;9.90;66.50;;;;;;5090853;28;20044;-78
2021/04/09 09:14:38;;;;;;;3.40;2.33;;;9.90;66.60;;;;;;5076535;28;20035;-78
2021/04/09 09:17:33;;;;;;;4.47;2.42;;;10.00;66.40;;;;;;5095870;28;20040;-79
2021/04/09 09:20:12;;;;;;;3.65;2.35;;;10.00;66.30;;;;;;5092820;28;20036;-82
2021/04/09 09:23:17;;;;;;;3.50;2.10;;;10.00;66.40;;;;;;5074202;28;20048;-88
2021/04/09 09:25:45;;;;;;;3.45;2.10;;;10.20;66.20;;;;;;5097821;28;20502;-79
2021/04/09 09:28:59;;;;;;;3.65;2.17;;;10.20;66.10;;;;;;5025276;28;20065;-83
2021/04/09 09:31:32;;;;;;;3.70;2.30;;;10.30;66.20;;;;;;4915103;29;20051;-79
2021/04/09 09:34:37;;;;;;;3.85;2.40;;;10.50;66.10;;;;;;4906909;29;20040;-83
2021/04/09 09:37:18;;;;;;;4.43;2.30;;;10.60;65.80;;;;;;4913784;29;20067;-84
2021/04/09 09:39:51;;;;;;;3.45;2.10;;;10.90;66.10;;;;;;4934048;29;20135;-84
2021/04/09 09:42:42;;;;;;;3.05;1.85;;;11.20;65.10;;;;;;4936027;29;20047;-85
2021/04/09 09:45:12;;;;;;;3.65;1.80;;;11.50;64.70;;;;;;4928347;29;20082;-84
2021/04/09 09:47:45;;;;;;;2.92;1.77;;;11.50;64.30;;;;;;4941200;29;20043;-84
2021/04/09 09:50:20;;;;;;;3.47;1.88;;;11.40;64.40;;;;;;4922699;29;20055;-84
2021/04/09 09:53:06;;;;;;;3.92;1.73;;;11.40;64.70;;;;;;4939651;29;20043;-85
2021/04/09 09:55:49;;;;;;;3.13;1.90;;;11.40;64.70;;;;;;4927077;29;20061;-85
2021/04/09 09:58:31;;;;;;;2.30;1.70;;;11.60;64.90;;;;;;4950968;28;20046;-85
2021/04/09 10:01:02;;;;;;;2.55;1.70;;;11.60;64.70;;;;;;4982683;28;20047;-84
2021/04/09 10:03:58;;;;;;;2.60;1.50;;;11.70;64.60;;;;;;5004591;28;20123;-83
2021/04/09 10:06:34;;;;;;;2.95;1.70;;;11.80;64.40;;;;;;5009784;28;20068;-85
2021/04/09 10:09:00;;;;;;;4.50;2.00;;;11.90;64.40;;;;;;4983631;28;20046;-84
2021/04/09 10:11:25;;;;;;;4.15;2.30;;;11.90;64.30;;;;;;4983164;28;20400;-85
2021/04/09 10:13:52;;;;;;;2.75;1.73;;;12.00;64.30;;;;;;5003157;28;20082;-84
2021/04/09 10:16:24;;;;;;;3.30;1.90;;;11.90;64.10;;;;;;4986358;28;20042;-85
2021/04/09 10:18:55;;;;;;;2.88;1.70;;;11.90;64.20;;;;;;4993958;28;20039;-85
2021/04/09 10:21:31;;;;;;;3.88;2.03;;;12.00;64.90;;;;;;4963106;28;20139;-84
2021/04/09 10:24:08;;;;;;;4.10;2.30;;;12.10;64.00;;;;;;4931810;28;20058;-83
2021/04/09 10:26:38;;;;;;;3.03;1.73;;;12.00;63.90;;;;;;4942491;28;20058;-79
2021/04/09 10:29:20;;;;;;;3.00;2.00;;;12.00;64.10;;;;;;4964696;28;20038;-78
2021/04/09 10:31:46;;;;;;;3.80;1.90;;;11.90;64.00;;;;;;4976260;28;20421;-81
2021/04/09 10:34:12;;;;;;;2.92;1.80;;;12.00;64.30;;;;;;5021694;28;20049;-81
2021/04/09 10:36:39;;;;;;;3.55;1.58;;;12.10;64.10;;;;;;5034227;28;20191;-80
2021/04/09 10:39:15;;;;;;;3.85;2.10;;;12.10;63.80;;;;;;5026465;28;20044;-79
2021/04/09 10:41:45;;;;;;;3.75;1.80;;;12.10;63.60;;;;;;5058423;28;20048;-80
2021/04/09 10:44:22;;;;;;;3.58;1.60;;;12.10;63.70;;;;;;5074516;28;20098;-78
2021/04/09 10:47:04;;;;;;;2.80;1.98;;;12.20;63.70;;;;;;5076256;28;20127;-78
2021/04/09 10:49:39;;;;;;;2.78;1.85;;;12.10;63.30;;;;;;5063642;28;20163;-79
2021/04/09 10:52:10;;;;;;;2.40;1.50;;;12.10;63.50;;;;;;5081644;28;20040;-80
2021/04/09 10:54:38;;;;;;;1.67;1.20;;;12.10;63.50;;;;;;5083700;28;20078;-80
2021/04/09 10:57:10;;;;;;;2.28;1.40;;;12.30;63.20;;;;;;5103195;28;20093;-78
2021/04/09 10:59:38;;;;;;;1.90;1.48;;;12.30;63.00;;;;;;5087916;28;20052;-81
2021/04/09 11:02:06;;;;;;;2.28;1.30;;;12.50;62.90;;;;;;5100095;28;20028;-78
2021/04/09 11:04:33;;;;;;;1.88;1.35;;;12.70;62.70;;;;;;5096341;28;20127;-82
2021/04/09 11:07:01;;;;;;;3.55;1.50;;;12.90;61.90;;;;;;5101349;28;20096;-79
2021/04/09 11:09:46;;;;;;;2.20;1.42;;;13.00;61.40;;;;;;5102672;28;20036;-80
2021/04/09 11:12:25;;;;;;;2.85;1.40;;;13.10;61.30;;;;;;5084008;28;20051;-80
2021/04/09 11:15:03;;;;;;;1.92;1.30;;;13.20;61.20;;;;;;5050688;28;20071;-79
2021/04/09 11:17:29;;;;;;;3.38;1.40;;;13.40;61.90;;;;;;5100852;28;20568;-79
2021/04/09 11:19:58;;;;;;;3.13;1.58;;;13.30;60.70;;;;;;5103020;28;20554;-80
2021/04/09 11:22:26;;;;;;;1.60;1.30;;;13.20;60.80;;;;;;5104348;28;20161;-80
2021/04/09 11:25:02;;;;;;;1.70;1.25;;;13.10;61.00;;;;;;5083304;28;20036;-80
2021/04/09 11:27:32;;;;;;;2.08;1.13;;;13.10;61.10;;;;;;5102627;28;20037;-80
2021/04/09 11:30:19;;;;;;;1.73;1.13;;;13.10;61.30;;;;;;5104040;28;20127;-80
2021/04/09 11:32:54;;;;;;;2.05;0.80;;;13.20;61.20;;;;;;5102553;28;20034;-78
2021/04/09 11:35:22;;;;;;;2.22;1.33;;;13.20;60.80;;;;;;5105787;28;20044;-80
2021/04/09 11:37:54;;;;;;;1.63;1.25;;;13.00;60.60;;;;;;5087179;28;20100;-78
2021/04/09 11:40:41;;;;;;;1.30;1.20;;;12.90;61.00;;;;;;5082383;28;20131;-79
2021/04/09 11:43:08;;;;;;;1.55;1.00;;;12.80;61.10;;;;;;5085351;28;20034;-80
2021/04/09 11:45:49;;;;;;;1.63;1.08;;;13.00;61.00;;;;;;5106630;28;20032;-79
2021/04/09 11:48:30;;;;;;;1.23;1.00;;;12.90;61.50;;;;;;5077365;28;20036;-79
2021/04/09 11:51:16;;;;;;;3.70;1.00;;;12.80;61.00;;;;;;5099165;28;20114;-79
2021/04/09 11:53:42;;;;;;;1.75;1.00;;;12.80;61.20;;;;;;5098625;28;20130;-81
2021/04/09 11:56:08;;;;;;;1.52;0.82;;;12.80;61.20;;;;;;5078652;28;20044;-78
2021/04/09 11:58:42;;;;;;;1.95;1.20;;;12.80;61.00;;;;;;5094616;28;20090;-82
2021/04/09 12:01:08;;;;;;;1.00;0.95;;;12.80;60.40;;;;;;5094730;28;20048;-78
2021/04/09 12:03:40;;;;;;;2.22;0.90;;;12.70;60.70;;;;;;5075436;28;20044;-79
2021/04/09 12:06:11;;;;;;;2.03;1.02;;;12.60;61.00;;;;;;5093697;28;20063;-77
2021/04/09 12:08:36;;;;;;;1.13;0.85;;;12.70;61.20;;;;;;5093344;28;20102;-76
2021/04/09 12:11:02;;;;;;;1.65;1.00;;;12.60;60.90;;;;;;5093790;28;20040;-75
2021/04/09 12:13:28;;;;;;;1.38;0.90;;;12.50;61.00;;;;;;5093474;28;20028;-77
2021/04/09 12:15:55;;;;;;;1.30;0.90;;;12.40;61.40;;;;;;5075138;28;20040;-78
2021/04/09 12:18:21;;;;;;;1.20;0.98;;;12.40;61.40;;;;;;5093371;28;20039;-77
2021/04/09 12:20:46;;;;;;;1.15;0.90;;;12.30;61.30;;;;;;5075555;28;20042;-80
2021/04/09 12:23:12;;;;;;;1.65;1.10;;;12.30;61.30;;;;;;5059382;28;20040;-78
2021/04/09 12:25:38;;;;;;;1.38;0.90;;;12.20;61.50;;;;;;5093771;28;20044;-79
2021/04/09 12:28:07;;;;;;;1.38;0.90;;;12.40;61.70;;;;;;5093617;28;20040;-79
2021/04/09 12:30:34;;;;;;;1.10;0.85;;;12.70;61.10;;;;;;5092809;28;20486;-78
2021/04/09 12:33:00;;;;;;;1.60;1.15;;;12.80;60.50;;;;;;5093482;28;20126;-78
2021/04/09 12:35:26;;;;;;;1.60;1.05;;;13.10;60.00;;;;;;5093599;28;20068;-76
2021/04/09 12:37:52;;;;;;;1.20;0.90;;;13.20;59.40;;;;;;5093641;28;20047;-78
2021/04/09 12:40:17;;;;;;;0.82;0.80;;;13.30;59.40;;;;;;5093221;28;20044;-77
2021/04/09 12:42:43;;;;;;;0.90;0.80;;;13.30;59.10;;;;;;5093582;28;20508;-76
2021/04/09 12:45:09;;;;;;;1.00;0.90;;;13.50;59.00;;;;;;5093695;28;20104;-77
2021/04/09 12:47:35;;;;;;;1.02;0.70;;;13.70;58.80;;;;;;5075005;28;20441;-79
2021/04/09 12:50:01;;;;;;;1.55;0.57;;;13.80;58.50;;;;;;5058494;28;20129;-79
2021/04/09 12:52:27;;;;;;;1.08;0.60;;;14.00;57.90;;;;;;5075837;28;20162;-79
2021/04/09 12:54:52;;;;;;;1.55;0.70;;;13.90;58.30;;;;;;5094106;28;20043;-81
2021/04/09 12:57:18;;;;;;;1.13;0.57;;;13.90;58.70;;;;;;5094199;28;20040;-78
2021/04/09 12:59:44;;;;;;;0.70;0.70;;;14.10;58.00;;;;;;5074999;28;20040;-81
2021/04/09 13:02:10;;;;;;;2.10;0.73;;;14.40;57.70;;;;;;5093758;28;20043;-80
2021/04/09 13:04:35;;;;;;;0.90;0.65;;;14.40;57.10;;;;;;5094434;28;20040;-80
2021/04/09 13:07:01;;;;;;;1.10;0.82;;;14.30;57.00;;;;;;5093487;28;20040;-78